Time;durP1;ratioP1;P1;durP2;ratioP2;P2;SDS_P1;SDS_P2;PMS_P1;PMS_P2;Temp;Humidity;BMP_temperature;BMP_pressure;BME280_temperature;BME280_humidity;BME280_pressure;Samples;Min_cycle;Max_cycle;Signal;HPM_P1;HPM_P2
2021/06/13 00:02:07;;;;;;;1999.90;999.90;;;;;;;15.79;88.52;98215.75;5088058;28;20105;-66
2021/06/13 00:04:34;;;;;;;1999.90;999.90;;;;;;;15.84;88.31;98216.28;5085064;28;20055;-66
2021/06/13 00:07:00;;;;;;;1999.90;999.90;;;;;;;15.98;88.48;98224.13;5077588;28;20101;-66
2021/06/13 00:09:27;;;;;;;1999.90;999.90;;;;;;;16.16;87.70;98224.53;5093378;28;20116;-66
2021/06/13 00:11:54;;;;;;;1999.90;999.90;;;;;;;16.29;87.56;98228.00;5088971;28;20105;-66
2021/06/13 00:14:24;;;;;;;1999.90;999.90;;;;;;;16.26;87.61;98237.09;5076121;28;20051;-66
2021/06/13 00:16:51;;;;;;;1999.90;999.90;;;;;;;16.26;87.61;98239.09;5092794;28;20052;-66
2021/06/13 00:19:17;;;;;;;1999.90;999.90;;;;;;;16.08;88.55;98233.09;5087704;28;20437;-66
2021/06/13 00:21:45;;;;;;;1999.90;999.90;;;;;;;16.24;89.00;98238.63;5084006;28;20052;-67
2021/06/13 00:24:11;;;;;;;1999.90;999.90;;;;;;;16.35;88.07;98229.31;5088043;28;20121;-66
2021/06/13 00:26:41;;;;;;;1999.90;999.90;;;;;;;16.14;89.41;98235.25;5084829;28;20440;-66
2021/06/13 00:29:08;;;;;;;1999.90;999.90;;;;;;;16.06;90.49;98233.47;5083958;28;20457;-66
2021/06/13 00:31:35;;;;;;;1999.90;999.90;;;;;;;16.12;90.88;98234.81;5098553;28;20279;-66
2021/06/13 00:34:03;;;;;;;1999.90;999.90;;;;;;;16.08;91.09;98236.72;5090970;28;20052;-66
2021/06/13 00:36:30;;;;;;;1999.90;999.90;;;;;;;15.80;93.13;98236.88;5076992;28;20056;-66
2021/06/13 00:38:57;;;;;;;1999.90;999.90;;;;;;;15.97;93.16;98241.25;5096011;28;20056;-66
2021/06/13 00:41:24;;;;;;;1999.90;999.90;;;;;;;15.69;95.26;98231.03;5082194;28;20048;-66
2021/06/13 00:43:51;;;;;;;1999.90;999.90;;;;;;;15.64;95.46;98236.88;5087935;28;20059;-66
2021/06/13 00:46:18;;;;;;;1999.90;999.90;;;;;;;15.41;97.26;98233.97;5088764;28;20052;-66
2021/06/13 00:48:45;;;;;;;1999.90;999.90;;;;;;;15.43;97.11;98235.19;5081323;28;20060;-66
2021/06/13 00:51:12;;;;;;;1999.90;999.90;;;;;;;15.43;97.50;98229.63;5080633;28;20075;-66
2021/06/13 00:53:38;;;;;;;1999.90;999.90;;;;;;;15.15;99.37;98240.88;5083660;28;20056;-66
2021/06/13 00:56:05;;;;;;;1999.90;999.90;;;;;;;15.24;99.16;98238.69;5082974;28;20044;-66
2021/06/13 00:58:32;;;;;;;1999.90;999.90;;;;;;;15.25;99.71;98245.09;5086982;28;20337;-64
2021/06/13 01:00:59;;;;;;;1999.90;999.90;;;;;;;14.75;100.00;98248.19;5084482;28;20044;-64
2021/06/13 01:03:25;;;;;;;1999.90;999.90;;;;;;;14.64;100.00;98249.88;5081722;28;20106;-65
2021/06/13 01:05:52;;;;;;;1999.90;999.90;;;;;;;14.91;100.00;98262.13;5078576;28;20121;-64
2021/06/13 01:08:28;;;;;;;1999.90;999.90;;;;;;;14.94;98.30;98261.41;5077239;28;20071;-64
2021/06/13 01:11:13;;;;;;;1999.90;999.90;;;;;;;14.66;100.00;98258.66;5089310;28;20382;-64
2021/06/13 01:13:45;;;;;;;1999.90;999.90;;;;;;;14.51;100.00;98253.84;5081656;28;20074;-64
2021/06/13 01:16:23;;;;;;;1999.90;999.90;;;;;;;14.84;99.75;98263.91;5088677;28;20477;-64
2021/06/13 01:19:01;;;;;;;1999.90;999.90;;;;;;;14.58;100.00;98257.63;5085111;28;20052;-64
2021/06/13 01:21:34;;;;;;;1999.90;999.90;;;;;;;14.64;100.00;98262.97;5089658;28;20433;-64
2021/06/13 01:24:16;;;;;;;1999.90;999.90;;;;;;;14.84;100.00;98263.91;5088187;28;20460;-64
2021/06/13 01:27:02;;;;;;;1999.90;999.90;;;;;;;15.01;99.46;98262.78;5084011;28;20096;-64
2021/06/13 01:29:31;;;;;;;1999.90;999.90;;;;;;;14.85;99.79;98260.78;5087899;28;20236;-64
2021/06/13 01:32:03;;;;;;;1999.90;999.90;;;;;;;14.72;100.00;98268.41;5087156;28;20044;-64
2021/06/13 01:34:35;;;;;;;1999.90;999.90;;;;;;;14.53;100.00;98262.63;5079121;28;20056;-64
2021/06/13 01:37:06;;;;;;;1999.90;999.90;;;;;;;14.29;100.00;98272.72;5080877;28;20513;-64
2021/06/13 01:39:35;;;;;;;1999.90;999.90;;;;;;;14.27;100.00;98266.66;5087603;28;20137;-64
2021/06/13 01:42:03;;;;;;;1999.90;999.90;;;;;;;14.29;100.00;98271.88;5080303;28;20339;-65
2021/06/13 01:44:31;;;;;;;1999.90;999.90;;;;;;;14.30;100.00;98279.88;5105933;28;20089;-65
2021/06/13 01:47:02;;;;;;;1999.90;999.90;;;;;;;14.21;100.00;98276.41;5088909;28;20414;-65
2021/06/13 01:49:29;;;;;;;1999.90;999.90;;;;;;;14.61;100.00;98272.84;5080485;28;20048;-66
2021/06/13 01:51:56;;;;;;;1999.90;999.90;;;;;;;14.77;100.00;98275.69;5090406;28;20306;-66
2021/06/13 01:54:26;;;;;;;1999.90;999.90;;;;;;;14.81;99.41;98264.63;5087568;28;20302;-66
2021/06/13 01:56:53;;;;;;;1999.90;999.90;;;;;;;14.55;100.00;98269.47;5075345;28;20051;-65
2021/06/13 01:59:22;;;;;;;1999.90;999.90;;;;;;;14.64;100.00;98272.13;5080788;28;20084;-66
2021/06/13 02:01:51;;;;;;;1999.90;999.90;;;;;;;14.76;100.00;98269.28;5087588;28;20427;-66
2021/06/13 02:04:20;;;;;;;1999.90;999.90;;;;;;;14.58;100.00;98270.75;5086421;28;20059;-65
2021/06/13 02:06:50;;;;;;;1999.90;999.90;;;;;;;14.36;100.00;98284.00;5087955;28;20071;-65
2021/06/13 02:09:19;;;;;;;1999.90;999.90;;;;;;;14.66;100.00;98280.13;5086672;28;20070;-65
2021/06/13 02:11:47;;;;;;;1999.90;999.90;;;;;;;14.53;100.00;98276.53;5080752;28;20048;-66
2021/06/13 02:14:18;;;;;;;1999.90;999.90;;;;;;;14.86;100.00;98267.97;5088036;28;20052;-65
2021/06/13 02:16:46;;;;;;;1999.90;999.90;;;;;;;14.85;99.87;98276.69;5087199;28;20056;-65
2021/06/13 02:19:16;;;;;;;1999.90;999.90;;;;;;;14.36;100.00;98274.88;5082385;28;20727;-65
2021/06/13 02:21:45;;;;;;;1999.90;999.90;;;;;;;14.21;100.00;98284.75;5087244;28;20044;-65
2021/06/13 02:24:15;;;;;;;1999.90;999.90;;;;;;;14.48;100.00;98279.59;5081320;28;20054;-65
2021/06/13 02:26:43;;;;;;;1999.90;999.90;;;;;;;14.36;100.00;98283.22;5086262;28;20076;-65
2021/06/13 02:29:10;;;;;;;1999.90;999.90;;;;;;;14.64;100.00;98282.47;5088589;28;20521;-65
2021/06/13 02:31:40;;;;;;;1999.90;999.90;;;;;;;14.27;100.00;98291.69;5085336;28;20176;-66
2021/06/13 02:34:09;;;;;;;1999.90;999.90;;;;;;;13.99;100.00;98297.19;5086946;28;20075;-65
2021/06/13 02:36:38;;;;;;;1999.90;999.90;;;;;;;13.96;100.00;98301.47;5090551;28;20048;-65
2021/06/13 02:39:07;;;;;;;1999.90;999.90;;;;;;;14.38;100.00;98301.19;5082112;28;20048;-65
2021/06/13 02:41:35;;;;;;;1999.90;999.90;;;;;;;14.27;100.00;98297.25;5087877;28;20051;-65
2021/06/13 02:44:02;;;;;;;1999.90;999.90;;;;;;;14.17;100.00;98306.09;5084036;28;20318;-65
2021/06/13 02:46:29;;;;;;;1999.90;999.90;;;;;;;14.03;100.00;98304.50;5075170;28;20490;-65
2021/06/13 02:48:55;;;;;;;1999.90;999.90;;;;;;;14.20;100.00;98302.59;5086626;28;20622;-65
2021/06/13 02:51:32;;;;;;;1999.90;999.90;;;;;;;14.43;100.00;98306.47;5077672;28;20097;-65
2021/06/13 02:54:01;;;;;;;1999.90;999.90;;;;;;;14.34;99.44;98311.38;5068855;28;20403;-65
2021/06/13 02:56:53;;;;;;;1999.90;999.90;;;;;;;14.18;100.00;98313.28;5087249;28;20074;-65
2021/06/13 02:59:48;;;;;;;;;;;;;;;14.49;99.39;98315.41;5084421;28;20090;-65
2021/06/13 03:02:23;;;;;;;1999.90;999.90;;;;;;;14.25;100.00;98321.84;5070655;28;19977;-65
2021/06/13 03:04:51;;;;;;;1999.90;999.90;;;;;;;14.41;99.36;98331.06;5088116;28;20493;-65
2021/06/13 03:07:19;;;;;;;1999.90;999.90;;;;;;;14.44;99.53;98333.16;5080212;28;20125;-65
2021/06/13 03:09:49;;;;;;;1999.90;999.90;;;;;;;14.38;99.18;98322.59;5080565;28;20458;-65
2021/06/13 03:12:19;;;;;;;1999.90;999.90;;;;;;;14.47;98.97;98328.03;5080143;28;20048;-65
2021/06/13 03:14:51;;;;;;;1999.90;999.90;;;;;;;14.28;99.39;98332.25;5077050;28;20051;-65
2021/06/13 03:17:18;;;;;;;1999.90;999.90;;;;;;;13.80;100.00;98334.75;5080082;28;20113;-65
2021/06/13 03:19:47;;;;;;;1999.90;999.90;;;;;;;13.84;100.00;98343.19;5100082;28;20044;-65
2021/06/13 03:22:14;;;;;;;1999.90;999.90;;;;;;;14.00;100.00;98343.31;5075043;28;20052;-65
2021/06/13 03:24:43;;;;;;;1999.90;999.90;;;;;;;14.07;100.00;98340.75;5084993;28;20432;-65
2021/06/13 03:27:10;;;;;;;1999.90;999.90;;;;;;;14.20;99.50;98347.94;5092100;28;20125;-65
2021/06/13 03:29:40;;;;;;;1999.90;999.90;;;;;;;14.10;99.45;98359.53;5080838;28;20114;-65
2021/06/13 03:32:12;;;;;;;1999.90;999.90;;;;;;;14.07;99.71;98358.25;5087909;28;20040;-65
2021/06/13 03:34:39;;;;;;;1999.90;999.90;;;;;;;14.25;98.88;98361.56;5088051;28;20051;-65
2021/06/13 03:37:09;;;;;;;1999.90;999.90;;;;;;;14.38;97.96;98359.59;5090765;28;20057;-65
2021/06/13 03:39:37;;;;;;;1999.90;999.90;;;;;;;14.32;97.80;98365.72;5088091;28;20345;-65
2021/06/13 03:42:05;;;;;;;1999.90;999.90;;;;;;;14.41;97.34;98364.44;5081520;28;20453;-65
2021/06/13 03:44:33;;;;;;;1999.90;999.90;;;;;;;14.38;97.50;98365.16;5075870;28;20079;-65
2021/06/13 03:47:01;;;;;;;1999.90;999.90;;;;;;;14.09;98.04;98375.38;5082384;28;20126;-65
2021/06/13 03:49:28;;;;;;;1999.90;999.90;;;;;;;14.00;99.58;98369.13;5084342;28;20048;-65
2021/06/13 03:51:55;;;;;;;1999.90;999.90;;;;;;;14.29;97.69;98375.63;5079368;28;20353;-65
2021/06/13 03:54:22;;;;;;;1999.90;999.90;;;;;;;13.99;99.20;98380.59;5089454;28;20070;-65
2021/06/13 03:56:54;;;;;;;1999.90;999.90;;;;;;;14.33;98.45;98379.28;5068760;28;20392;-64
2021/06/13 03:59:25;;;;;;;1999.90;999.90;;;;;;;14.76;96.09;98380.63;5087197;28;20052;-65
2021/06/13 04:01:54;;;;;;;1999.90;999.90;;;;;;;14.35;96.78;98388.13;5089648;28;20170;-65
2021/06/13 04:04:22;;;;;;;1999.90;999.90;;;;;;;14.20;98.54;98392.41;5085239;28;20108;-63
2021/06/13 04:06:51;;;;;;;1999.90;999.90;;;;;;;13.98;98.74;98392.88;5082390;28;20051;-64
2021/06/13 04:09:19;;;;;;;1999.90;999.90;;;;;;;13.82;100.00;98398.31;5092517;28;20097;-65
2021/06/13 04:11:47;;;;;;;1999.90;999.90;;;;;;;14.23;99.00;98402.00;5082895;28;20044;-65
2021/06/13 04:14:14;;;;;;;1999.90;999.90;;;;;;;14.17;98.19;98397.84;5075009;28;20056;-65
2021/06/13 04:16:44;;;;;;;1999.90;999.90;;;;;;;14.04;98.65;98395.09;5090847;28;20377;-65
2021/06/13 04:19:11;;;;;;;1999.90;999.90;;;;;;;14.07;99.22;98399.16;5088047;28;20048;-65
2021/06/13 04:21:39;;;;;;;1999.90;999.90;;;;;;;13.98;98.96;98404.81;5075623;28;20060;-65
2021/06/13 04:24:10;;;;;;;1999.90;999.90;;;;;;;14.20;99.46;98406.31;5092622;28;20064;-65
2021/06/13 04:26:37;;;;;;;1999.90;999.90;;;;;;;13.88;97.81;98408.84;5085802;28;20404;-65
2021/06/13 04:29:04;;;;;;;1999.90;999.90;;;;;;;13.48;100.00;98408.69;5078916;28;20126;-65
2021/06/13 04:31:31;;;;;;;1999.90;999.90;;;;;;;13.47;100.00;98412.59;5086670;28;20115;-65
2021/06/13 04:33:58;;;;;;;1999.90;999.90;;;;;;;13.49;100.00;98413.09;5083485;28;20044;-65
2021/06/13 04:36:26;;;;;;;1999.90;999.90;;;;;;;13.53;100.00;98408.44;5076192;28;20455;-63
2021/06/13 04:38:52;;;;;;;1999.90;999.90;;;;;;;13.57;100.00;98414.94;5085573;28;20161;-64
2021/06/13 04:41:20;;;;;;;1999.90;999.90;;;;;;;13.77;100.00;98429.94;5085070;28;20106;-64
2021/06/13 04:43:47;;;;;;;1999.90;999.90;;;;;;;13.59;99.38;98417.38;5076348;28;20337;-65
2021/06/13 04:46:17;;;;;;;1999.90;999.90;;;;;;;14.13;97.21;98424.72;5091366;28;20506;-65
2021/06/13 04:48:44;;;;;;;1999.90;999.90;;;;;;;14.12;97.34;98418.38;5093581;28;20432;-65
2021/06/13 04:51:12;;;;;;;1999.90;999.90;;;;;;;13.42;98.40;98441.41;5088549;28;20075;-65
2021/06/13 04:53:47;;;;;;;1999.90;999.90;;;;;;;13.62;99.28;98438.91;5080088;28;20437;-65
2021/06/13 04:56:26;;;;;;;1999.90;999.90;;;;;;;13.89;98.12;98443.03;5088050;28;20121;-64
2021/06/13 04:58:53;;;;;;;1999.90;999.90;;;;;;;14.32;95.83;98444.44;5084420;28;20121;-64
2021/06/13 05:01:19;;;;;;;1999.90;999.90;;;;;;;14.33;93.33;98443.25;5073136;28;20062;-64
2021/06/13 05:03:46;;;;;;;1999.90;999.90;;;;;;;14.41;93.93;98447.91;5077934;28;20048;-64
2021/06/13 05:06:13;;;;;;;1999.90;999.90;;;;;;;14.71;92.60;98449.66;5081756;28;20051;-64
2021/06/13 05:08:41;;;;;;;1999.90;999.90;;;;;;;14.31;93.48;98459.50;5074500;28;20726;-64
2021/06/13 05:11:11;;;;;;;1999.90;999.90;;;;;;;14.02;92.17;98453.00;5085872;28;20125;-64
2021/06/13 05:13:38;;;;;;;1999.90;999.90;;;;;;;13.77;94.41;98454.13;5086040;28;20144;-64
2021/06/13 05:16:05;;;;;;;1999.90;999.90;;;;;;;13.91;94.94;98454.59;5089641;28;20113;-64
2021/06/13 05:18:32;;;;;;;1999.90;999.90;;;;;;;14.21;93.05;98451.63;5086625;28;20086;-64
2021/06/13 05:20:59;;;;;;;1999.90;999.90;;;;;;;13.85;93.94;98450.44;5087195;28;20087;-64
2021/06/13 05:23:26;;;;;;;1999.90;999.90;;;;;;;13.64;94.89;98456.88;5086756;28;20043;-64
2021/06/13 05:25:55;;;;;;;1999.90;999.90;;;;;;;13.42;94.81;98466.41;5082075;28;20436;-64
2021/06/13 05:28:23;;;;;;;1999.90;999.90;;;;;;;13.38;94.50;98462.69;5081732;28;20106;-64
2021/06/13 05:30:51;;;;;;;1999.90;999.90;;;;;;;13.37;94.76;98459.09;5079750;28;20048;-64
2021/06/13 05:33:18;;;;;;;1999.90;999.90;;;;;;;13.63;94.80;98477.47;5073340;28;20045;-65
2021/06/13 05:35:47;;;;;;;1999.90;999.90;;;;;;;14.04;92.78;98472.13;5089474;28;20055;-65
2021/06/13 05:38:14;;;;;;;1999.90;999.90;;;;;;;13.92;92.01;98478.47;5088753;28;20048;-65
2021/06/13 05:40:43;;;;;;;1999.90;999.90;;;;;;;13.98;91.86;98479.88;5080080;28;20522;-63
2021/06/13 05:43:11;;;;;;;1999.90;999.90;;;;;;;14.23;91.19;98479.88;5089762;28;20128;-63
2021/06/13 05:45:40;;;;;;;1999.90;999.90;;;;;;;14.15;90.06;98483.59;5088442;28;20081;-63
2021/06/13 05:48:08;;;;;;;1999.90;999.90;;;;;;;14.23;90.50;98477.09;5096324;28;20060;-63
2021/06/13 05:50:35;;;;;;;1999.90;999.90;;;;;;;14.05;91.46;98480.13;5089872;28;20052;-63
2021/06/13 05:53:02;;;;;;;1999.90;999.90;;;;;;;13.97;91.68;98492.16;5080188;28;20101;-63
2021/06/13 05:55:29;;;;;;;1999.90;999.90;;;;;;;14.15;90.60;98491.94;5076389;28;20390;-63
2021/06/13 05:57:56;;;;;;;1999.90;999.90;;;;;;;14.30;90.46;98496.00;5088422;28;20056;-63
2021/06/13 06:00:29;;;;;;;1999.90;999.90;;;;;;;14.84;87.27;98490.22;5088156;28;20052;-63
2021/06/13 06:02:56;;;;;;;1999.90;999.90;;;;;;;14.26;90.44;98493.09;5080183;28;20043;-64
2021/06/13 06:05:23;;;;;;;1999.90;999.90;;;;;;;14.31;88.14;98498.44;5088307;28;20048;-64
2021/06/13 06:07:51;;;;;;;1999.90;999.90;;;;;;;14.36;88.04;98500.97;5086956;28;20059;-64
2021/06/13 06:10:20;;;;;;;1999.90;999.90;;;;;;;14.55;88.04;98494.84;5097097;28;20052;-64
2021/06/13 06:12:47;;;;;;;1999.90;999.90;;;;;;;14.19;88.29;98496.47;5088751;28;20097;-64
2021/06/13 06:15:17;;;;;;;1999.90;999.90;;;;;;;13.86;88.15;98511.25;5084479;28;20406;-64
2021/06/13 06:17:45;;;;;;;1999.90;999.90;;;;;;;14.01;88.52;98506.19;5074067;28;20044;-64
2021/06/13 06:20:13;;;;;;;1999.90;999.90;;;;;;;14.37;87.04;98510.97;5075592;28;20094;-64
2021/06/13 06:22:40;;;;;;;1999.90;999.90;;;;;;;14.17;87.12;98517.44;5084613;28;20219;-64
2021/06/13 06:25:09;;;;;;;1999.90;999.90;;;;;;;14.14;86.78;98520.91;5076576;28;20051;-64
2021/06/13 06:27:36;;;;;;;1999.90;999.90;;;;;;;14.42;86.17;98526.59;5089630;28;20106;-64
2021/06/13 06:30:05;;;;;;;1999.90;999.90;;;;;;;14.48;85.79;98524.41;5087094;28;20467;-64
2021/06/13 06:32:33;;;;;;;1999.90;999.90;;;;;;;14.57;83.86;98523.16;5075403;28;20557;-64
2021/06/13 06:34:59;;;;;;;1999.90;999.90;;;;;;;14.31;84.78;98537.38;5072674;28;20102;-64
2021/06/13 06:37:27;;;;;;;1999.90;999.90;;;;;;;14.25;83.52;98534.00;5085219;28;20073;-66
2021/06/13 06:39:54;;;;;;;1999.90;999.90;;;;;;;14.16;83.75;98530.53;5078827;28;20047;-65
2021/06/13 06:42:21;;;;;;;1999.90;999.90;;;;;;;14.26;83.96;98538.44;5086975;28;20433;-66
2021/06/13 06:44:52;;;;;;;1999.90;999.90;;;;;;;14.47;83.36;98545.88;5079931;28;20076;-65
2021/06/13 06:47:19;;;;;;;1999.90;999.90;;;;;;;13.98;83.13;98538.25;5079197;28;20113;-65
2021/06/13 06:49:46;;;;;;;1999.90;999.90;;;;;;;13.82;84.62;98537.28;5085398;28;20125;-65
2021/06/13 06:52:13;;;;;;;1999.90;999.90;;;;;;;14.23;83.01;98541.91;5082872;28;20048;-65
2021/06/13 06:54:40;;;;;;;1999.90;999.90;;;;;;;14.48;82.48;98546.66;5080995;28;20087;-65
2021/06/13 06:57:08;;;;;;;1999.90;999.90;;;;;;;14.29;81.48;98547.22;5080708;28;20098;-65
2021/06/13 06:59:36;;;;;;;1999.90;999.90;;;;;;;14.28;81.89;98543.63;5084985;28;20113;-64
2021/06/13 07:02:03;;;;;;;1999.90;999.90;;;;;;;14.70;80.59;98543.44;5087028;28;20144;-65
2021/06/13 07:04:30;;;;;;;1999.90;999.90;;;;;;;15.23;78.58;98545.44;5080849;28;20418;-65
2021/06/13 07:06:57;;;;;;;1999.90;999.90;;;;;;;15.70;77.26;98544.03;5087073;28;20128;-65
2021/06/13 07:09:24;;;;;;;1999.90;999.90;;;;;;;15.52;77.51;98543.53;5087110;28;20047;-65
2021/06/13 07:11:50;;;;;;;1999.90;999.90;;;;;;;15.52;77.10;98554.69;5079696;28;20447;-66
2021/06/13 07:14:17;;;;;;;1999.90;999.90;;;;;;;15.20;76.67;98551.72;5080485;28;20323;-65
2021/06/13 07:16:44;;;;;;;1999.90;999.90;;;;;;;14.89;76.74;98564.34;5080115;28;20474;-65
2021/06/13 07:19:10;;;;;;;1999.90;999.90;;;;;;;15.08;77.17;98558.97;5072672;28;20507;-65
2021/06/13 07:21:37;;;;;;;1999.90;999.90;;;;;;;14.84;76.27;98557.03;5080630;28;20105;-64
2021/06/13 07:24:06;;;;;;;1999.90;999.90;;;;;;;13.89;75.93;98563.38;5084389;28;20044;-65
2021/06/13 07:26:35;;;;;;;1999.90;999.90;;;;;;;13.91;76.49;98566.59;5071643;28;20048;-64
2021/06/13 07:29:02;;;;;;;1999.90;999.90;;;;;;;13.85;77.28;98569.94;5081296;28;20113;-65
2021/06/13 07:31:29;;;;;;;1999.90;999.90;;;;;;;13.94;77.79;98573.44;5082277;28;20071;-64
2021/06/13 07:33:56;;;;;;;1999.90;999.90;;;;;;;14.19;75.74;98577.13;5072339;28;20087;-65
2021/06/13 07:36:23;;;;;;;1999.90;999.90;;;;;;;14.10;74.01;98584.75;5086979;28;20587;-65
2021/06/13 07:38:49;;;;;;;1999.90;999.90;;;;;;;14.54;75.23;98578.66;5087108;28;20106;-65
2021/06/13 07:41:16;;;;;;;1999.90;999.90;;;;;;;15.29;73.29;98580.28;5076826;28;20346;-65
2021/06/13 07:43:42;;;;;;;1999.90;999.90;;;;;;;15.55;72.40;98584.63;5080346;28;20048;-64
2021/06/13 07:46:09;;;;;;;1999.90;999.90;;;;;;;15.94;70.09;98587.75;5082938;28;20106;-64
2021/06/13 07:48:40;;;;;;;1999.90;999.90;;;;;;;15.72;70.23;98589.91;5071209;28;20044;-65
2021/06/13 07:51:09;;;;;;;1999.90;999.90;;;;;;;15.68;71.30;98597.34;5079411;28;20048;-65
2021/06/13 07:53:43;;;;;;;1999.90;999.90;;;;;;;15.16;72.00;98598.19;5085814;28;20433;-66
2021/06/13 07:56:11;;;;;;;1999.90;999.90;;;;;;;15.00;72.69;98604.44;5086291;28;20048;-65
2021/06/13 07:58:38;;;;;;;1999.90;999.90;;;;;;;15.04;73.11;98602.59;5087593;28;20056;-66
2021/06/13 08:01:05;;;;;;;1999.90;999.90;;;;;;;14.67;73.91;98599.81;5084508;28;20048;-66
2021/06/13 08:03:32;;;;;;;1999.90;999.90;;;;;;;14.60;74.46;98605.94;5087493;28;20055;-66
2021/06/13 08:05:58;;;;;;;1999.90;999.90;;;;;;;15.26;76.51;98598.50;5091697;28;20117;-65
2021/06/13 08:08:25;;;;;;;1999.90;999.90;;;;;;;16.52;71.71;98602.06;5078278;28;20063;-65
2021/06/13 08:10:52;;;;;;;1999.90;999.90;;;;;;;16.66;71.81;98606.41;5080821;28;20091;-65
2021/06/13 08:13:19;;;;;;;1999.90;999.90;;;;;;;16.51;70.38;98606.03;5072302;28;20110;-66
2021/06/13 08:15:46;;;;;;;1999.90;999.90;;;;;;;16.01;70.18;98605.47;5089470;28;20052;-66
2021/06/13 08:18:13;;;;;;;1999.90;999.90;;;;;;;15.88;69.69;98611.47;5090683;28;20101;-65
2021/06/13 08:20:40;;;;;;;1999.90;999.90;;;;;;;15.43;70.92;98608.56;5084081;28;20056;-65
2021/06/13 08:23:08;;;;;;;1999.90;999.90;;;;;;;15.05;71.17;98620.94;5085039;28;20094;-65
2021/06/13 08:25:34;;;;;;;1999.90;999.90;;;;;;;15.66;71.68;98627.53;5089230;28;20056;-65
2021/06/13 08:28:01;;;;;;;1999.90;999.90;;;;;;;15.74;69.89;98611.84;5076378;28;20110;-65
2021/06/13 08:30:28;;;;;;;1999.90;999.90;;;;;;;16.67;68.79;98620.00;5090257;28;20432;-64
2021/06/13 08:32:55;;;;;;;1999.90;999.90;;;;;;;16.46;65.15;98630.59;5082385;28;20036;-66
2021/06/13 08:35:22;;;;;;;1999.90;999.90;;;;;;;15.44;65.89;98620.53;5074964;28;20162;-65
2021/06/13 08:37:49;;;;;;;1999.90;999.90;;;;;;;15.00;68.27;98628.69;5080575;28;20418;-65
2021/06/13 08:40:17;;;;;;;1999.90;999.90;;;;;;;15.04;67.27;98632.41;5081644;28;20420;-65
2021/06/13 08:42:44;;;;;;;1999.90;999.90;;;;;;;14.71;69.30;98627.78;5089807;28;20052;-65
2021/06/13 08:45:13;;;;;;;1999.90;999.90;;;;;;;14.87;70.15;98630.66;5079442;28;20049;-65
2021/06/13 08:47:42;;;;;;;1999.90;999.90;;;;;;;15.75;68.68;98636.59;5081972;28;20078;-66
2021/06/13 08:50:10;;;;;;;1999.90;999.90;;;;;;;14.82;70.49;98636.47;5081136;28;20044;-65
2021/06/13 08:52:37;;;;;;;1999.90;999.90;;;;;;;15.28;69.71;98634.38;5078380;28;20110;-65
2021/06/13 08:55:06;;;;;;;1999.90;999.90;;;;;;;15.05;70.19;98646.00;5082413;28;20101;-65
2021/06/13 08:57:36;;;;;;;1999.90;999.90;;;;;;;15.21;69.69;98645.28;5080985;28;20091;-66
2021/06/13 09:00:08;;;;;;;1999.90;999.90;;;;;;;15.56;70.49;98644.78;5077401;28;20105;-66
2021/06/13 09:02:35;;;;;;;1999.90;999.90;;;;;;;14.86;69.69;98651.34;5081443;28;20063;-65
2021/06/13 09:05:02;;;;;;;1999.90;999.90;;;;;;;14.56;71.19;98655.09;5076898;28;20101;-65
2021/06/13 09:07:29;;;;;;;1999.90;999.90;;;;;;;14.50;70.34;98663.97;5075667;28;20060;-65
2021/06/13 09:10:07;;;;;;;1999.90;999.90;;;;;;;15.06;68.95;98664.31;5084804;28;20113;-65
2021/06/13 09:12:36;;;;;;;1999.90;999.90;;;;;;;14.53;67.50;98660.50;5090418;28;20106;-65
2021/06/13 09:15:05;;;;;;;1999.90;999.90;;;;;;;14.54;66.86;98659.34;5072738;28;20074;-65
2021/06/13 09:17:32;;;;;;;1999.90;999.90;;;;;;;15.10;65.75;98664.44;5087518;28;20060;-66
2021/06/13 09:20:23;;;;;;;1999.90;999.90;;;;;;;15.22;64.85;98666.41;5083897;28;20061;-66
2021/06/13 09:23:15;;;;;;;1999.90;999.90;;;;;;;16.61;63.59;98676.44;5076920;28;20051;-65
2021/06/13 09:25:44;;;;;;;1999.90;999.90;;;;;;;16.24;61.54;98676.63;5084222;28;20286;-65
2021/06/13 09:28:16;;;;;;;1999.90;999.90;;;;;;;16.37;60.11;98664.25;5081384;28;20059;-66
2021/06/13 09:30:46;;;;;;;1999.90;999.90;;;;;;;16.15;61.81;98680.41;5078103;28;20101;-66
2021/06/13 09:33:20;;;;;;;1999.90;999.90;;;;;;;16.64;61.90;98681.31;5090194;28;20052;-65
2021/06/13 09:35:49;;;;;;;1999.90;999.90;;;;;;;16.23;61.27;98677.81;5088760;28;20436;-63
2021/06/13 09:38:18;;;;;;;1999.90;999.90;;;;;;;16.55;59.48;98670.31;5088488;28;20047;-64
2021/06/13 09:40:51;;;;;;;1999.90;999.90;;;;;;;16.69;60.13;98676.28;5088751;28;20389;-64
2021/06/13 09:43:24;;;;;;;1999.90;999.90;;;;;;;16.90;61.18;98676.03;5079770;28;20052;-65
2021/06/13 09:45:55;;;;;;;1999.90;999.90;;;;;;;16.91;57.19;98685.22;5082429;28;20125;-65
2021/06/13 09:48:22;;;;;;;1999.90;999.90;;;;;;;16.98;59.31;98679.03;5078205;28;20048;-64
2021/06/13 09:50:54;;;;;;;1999.90;999.90;;;;;;;16.41;59.23;98681.09;5075998;28;20057;-65
2021/06/13 09:53:22;;;;;;;1999.90;999.90;;;;;;;15.77;61.96;98701.16;5083218;28;20040;-63
2021/06/13 09:56:15;;;;;;;1999.90;999.90;;;;;;;15.72;61.99;98698.63;5076639;28;20097;-65
2021/06/13 09:58:51;;;;;;;1999.90;999.90;;;;;;;15.31;62.31;98690.19;5080605;28;20053;-65
2021/06/13 10:01:19;;;;;;;1999.90;999.90;;;;;;;15.49;63.73;98693.53;5087248;28;20052;-63
2021/06/13 10:03:47;;;;;;;1999.90;999.90;;;;;;;15.72;62.44;98704.22;5087521;28;20130;-64
2021/06/13 10:06:20;;;;;;;1999.90;999.90;;;;;;;15.68;62.43;98703.28;5075531;28;20068;-65
2021/06/13 10:08:48;;;;;;;1999.90;999.90;;;;;;;15.42;63.38;98712.84;5077956;28;20052;-64
2021/06/13 10:11:19;;;;;;;1999.90;999.90;;;;;;;15.66;63.27;98709.22;5081123;28;20044;-64
2021/06/13 10:13:47;;;;;;;1999.90;999.90;;;;;;;16.10;63.37;98710.53;5080469;28;20386;-65
2021/06/13 10:16:36;;;;;;;1999.90;999.90;;;;;;;16.21;63.19;98697.69;5084164;28;20213;-64
2021/06/13 10:19:06;;;;;;;1999.90;999.90;;;;;;;16.68;61.53;98701.75;5082763;28;20345;-64
2021/06/13 10:21:36;;;;;;;1999.90;999.90;;;;;;;16.92;61.85;98709.19;5086793;28;20522;-66
2021/06/13 10:24:06;;;;;;;1999.90;999.90;;;;;;;17.34;60.28;98708.66;5086976;28;20060;-65
2021/06/13 10:26:36;;;;;;;1999.90;999.90;;;;;;;16.62;59.95;98717.16;5088182;28;20060;-65
2021/06/13 10:29:03;;;;;;;1999.90;999.90;;;;;;;16.41;61.09;98715.41;5082313;28;20399;-65
2021/06/13 10:31:31;;;;;;;1999.90;999.90;;;;;;;16.91;59.99;98713.16;5075883;28;20052;-64
2021/06/13 10:33:58;;;;;;;1999.90;999.90;;;;;;;16.48;61.04;98712.81;5087895;28;20044;-65
2021/06/13 10:36:27;;;;;;;1999.90;999.90;;;;;;;16.80;60.83;98707.25;5086501;28;20049;-65
2021/06/13 10:38:56;;;;;;;1999.90;999.90;;;;;;;16.65;60.61;98710.84;5071893;28;20483;-64
2021/06/13 10:41:23;;;;;;;1999.90;999.90;;;;;;;16.88;59.56;98709.13;5085694;28;20052;-64
2021/06/13 10:43:49;;;;;;;1999.90;999.90;;;;;;;16.70;57.69;98717.00;5082964;28;20040;-65
2021/06/13 10:46:19;;;;;;;1999.90;999.90;;;;;;;16.87;56.91;98715.06;5086344;28;20445;-64
2021/06/13 10:48:51;;;;;;;1999.90;999.90;;;;;;;16.83;58.37;98706.53;5077669;28;20048;-63
2021/06/13 10:51:35;;;;;;;1999.90;999.90;;;;;;;17.56;55.60;98709.97;5081189;28;20113;-65
2021/06/13 10:54:25;;;;;;;1999.90;999.90;;;;;;;16.97;56.90;98716.50;5076355;28;20133;-64
2021/06/13 10:57:12;;;;;;;1999.90;999.90;;;;;;;16.88;58.51;98720.28;5071281;28;20499;-64
2021/06/13 10:59:41;;;;;;;1999.90;999.90;;;;;;;16.99;59.60;98719.75;5068835;28;20055;-62
2021/06/13 11:02:21;;;;;;;1999.90;999.90;;;;;;;16.47;59.69;98719.53;5081715;28;20113;-64